Time;durP1;ratioP1;P1;durP2;ratioP2;P2;SDS_P1;SDS_P2;PMS_P1;PMS_P2;Temp;Humidity;BMP_temperature;BMP_pressure;BME280_temperature;BME280_humidity;BME280_pressure;Samples;Min_cycle;Max_cycle;Signal;HPM_P1;HPM_P2
2021/10/26 00:01:31;;;;;;;13.45;7.88;;;10.70;58.70;;;;;;5070858;28;20359;-51
2021/10/26 00:03:57;;;;;;;13.13;7.40;;;10.60;58.50;;;;;;5072307;28;20050;-55
2021/10/26 00:06:23;;;;;;;17.15;7.80;;;10.60;58.60;;;;;;5070174;28;20029;-59
2021/10/26 00:08:49;;;;;;;15.52;8.50;;;10.70;58.70;;;;;;5072166;28;20037;-59
2021/10/26 00:11:15;;;;;;;15.45;8.75;;;10.70;58.50;;;;;;5070287;28;20059;-58
2021/10/26 00:13:40;;;;;;;13.75;8.60;;;10.80;58.40;;;;;;5071985;28;20031;-57
2021/10/26 00:16:06;;;;;;;13.75;8.48;;;10.80;58.80;;;;;;5071505;28;20107;-59
2021/10/26 00:18:32;;;;;;;15.52;7.63;;;10.80;58.40;;;;;;5071888;28;20028;-57
2021/10/26 00:20:58;;;;;;;16.00;8.00;;;10.80;58.50;;;;;;5071656;28;20028;-59
2021/10/26 00:23:24;;;;;;;13.20;8.35;;;10.80;58.30;;;;;;5070715;28;20035;-60
2021/10/26 00:25:49;;;;;;;16.58;8.38;;;10.70;58.40;;;;;;5071766;28;20229;-58
2021/10/26 00:28:15;;;;;;;14.88;8.70;;;10.70;58.80;;;;;;5071404;28;20035;-58
2021/10/26 00:30:41;;;;;;;15.10;9.18;;;10.60;58.70;;;;;;5071743;28;20527;-58
2021/10/26 00:33:06;;;;;;;13.23;8.63;;;10.60;59.00;;;;;;5070815;28;20025;-57
2021/10/26 00:35:32;;;;;;;13.27;9.60;;;10.60;59.00;;;;;;5071573;28;20055;-59
2021/10/26 00:38:02;;;;;;;16.70;10.18;;;10.60;59.20;;;;;;5071712;28;20479;-58
2021/10/26 00:40:29;;;;;;;15.30;9.25;;;10.60;59.40;;;;;;5070927;28;20123;-56
2021/10/26 00:42:55;;;;;;;20.55;9.77;;;10.60;59.20;;;;;;5071557;28;20103;-59
2021/10/26 00:45:21;;;;;;;18.08;10.30;;;10.60;59.40;;;;;;5069646;28;20044;-57
2021/10/26 00:47:47;;;;;;;18.13;10.15;;;10.60;59.50;;;;;;5071543;28;20031;-58
2021/10/26 00:50:13;;;;;;;15.18;9.30;;;10.60;59.80;;;;;;5067012;28;20049;-57
2021/10/26 00:52:41;;;;;;;14.68;9.05;;;10.50;59.80;;;;;;5051523;28;20025;-54
2021/10/26 00:55:07;;;;;;;14.88;9.55;;;10.50;60.00;;;;;;5050919;28;20122;-57
2021/10/26 00:57:33;;;;;;;16.63;10.10;;;10.50;60.10;;;;;;5033396;28;20462;-59
2021/10/26 00:59:59;;;;;;;13.80;9.27;;;10.50;60.70;;;;;;5051334;28;20032;-57
2021/10/26 01:02:25;;;;;;;17.02;9.77;;;10.60;60.00;;;;;;5050406;28;20302;-58
2021/10/26 01:04:51;;;;;;;17.20;9.23;;;10.60;59.70;;;;;;5033357;28;20120;-58
2021/10/26 01:07:16;;;;;;;14.65;9.00;;;10.60;59.70;;;;;;5050675;28;20037;-60
2021/10/26 01:09:44;;;;;;;16.98;9.43;;;10.60;59.60;;;;;;5051227;28;20052;-60
2021/10/26 01:12:10;;;;;;;17.17;9.80;;;10.60;59.90;;;;;;5050345;28;20338;-58
2021/10/26 01:14:37;;;;;;;21.17;8.95;;;10.40;60.70;;;;;;5051495;28;20159;-59
2021/10/26 01:17:05;;;;;;;16.85;9.85;;;10.40;60.80;;;;;;5050814;28;20406;-58
2021/10/26 01:19:52;;;;;;;13.23;9.50;;;10.60;60.30;;;;;;5033011;28;20119;-57
2021/10/26 01:22:20;;;;;;;14.68;8.82;;;10.70;60.30;;;;;;5050590;28;20021;-60
2021/10/26 01:24:47;;;;;;;15.82;10.23;;;10.70;60.00;;;;;;5050854;28;20017;-56
2021/10/26 01:27:14;;;;;;;17.42;10.60;;;10.80;59.90;;;;;;5050647;28;20075;-60
2021/10/26 01:29:40;;;;;;;18.88;10.48;;;10.70;60.20;;;;;;5051069;28;20385;-60
2021/10/26 01:32:09;;;;;;;14.30;10.20;;;10.60;60.70;;;;;;5032618;28;20406;-60
2021/10/26 01:34:35;;;;;;;16.90;10.20;;;10.30;61.70;;;;;;5051921;28;20029;-58
2021/10/26 01:37:07;;;;;;;17.00;9.98;;;10.40;61.20;;;;;;5054744;28;20035;-58
2021/10/26 01:39:33;;;;;;;14.48;10.07;;;10.40;61.20;;;;;;5054934;28;20100;-56
2021/10/26 01:42:00;;;;;;;15.23;9.40;;;10.30;61.50;;;;;;5054551;28;20063;-57
2021/10/26 01:44:27;;;;;;;20.58;11.13;;;10.20;61.80;;;;;;5054309;28;20029;-59
2021/10/26 01:46:53;;;;;;;15.07;9.32;;;10.10;62.50;;;;;;5054555;28;20078;-58
2021/10/26 01:49:20;;;;;;;19.77;9.75;;;10.10;62.80;;;;;;5054060;28;20394;-58
2021/10/26 01:51:47;;;;;;;15.52;10.85;;;10.20;62.60;;;;;;5066245;28;20503;-59
2021/10/26 01:54:13;;;;;;;30.35;11.35;;;10.10;62.60;;;;;;5072627;28;20028;-59
2021/10/26 01:56:40;;;;;;;18.02;10.93;;;10.20;62.50;;;;;;5073388;28;20042;-59
2021/10/26 01:59:06;;;;;;;15.93;10.55;;;10.20;62.30;;;;;;5074444;28;20069;-63
2021/10/26 02:01:32;;;;;;;16.65;11.10;;;10.10;62.80;;;;;;5074376;28;20036;-56
2021/10/26 02:03:58;;;;;;;15.75;10.70;;;9.90;63.30;;;;;;5074522;28;20024;-55
2021/10/26 02:06:23;;;;;;;16.58;10.95;;;10.00;63.20;;;;;;5055837;28;20436;-59
2021/10/26 02:08:49;;;;;;;18.20;10.77;;;10.10;63.10;;;;;;5074146;28;20417;-57
2021/10/26 02:11:15;;;;;;;18.60;11.27;;;10.20;62.80;;;;;;5073843;28;20028;-58
2021/10/26 02:13:40;;;;;;;18.20;11.02;;;9.90;63.50;;;;;;5074276;28;20047;-58
2021/10/26 02:16:07;;;;;;;15.70;10.30;;;9.90;63.70;;;;;;5074207;28;20099;-62
2021/10/26 02:18:32;;;;;;;17.30;10.45;;;9.80;63.80;;;;;;5074252;28;20267;-57
2021/10/26 02:21:00;;;;;;;16.00;10.00;;;10.00;63.50;;;;;;5074084;28;20025;-58
2021/10/26 02:23:25;;;;;;;16.88;9.85;;;10.10;63.10;;;;;;5073384;28;20097;-59
2021/10/26 02:25:51;;;;;;;16.15;10.50;;;10.10;63.00;;;;;;5073695;28;20074;-59
2021/10/26 02:28:19;;;;;;;15.77;10.05;;;10.20;62.70;;;;;;5072264;28;20025;-60
2021/10/26 02:30:44;;;;;;;18.63;10.82;;;10.10;62.50;;;;;;5072635;28;20033;-61
2021/10/26 02:33:11;;;;;;;22.17;11.48;;;10.00;62.80;;;;;;5073189;28;20025;-59
2021/10/26 02:35:37;;;;;;;16.52;10.18;;;9.70;64.00;;;;;;5073564;28;20029;-60
2021/10/26 02:38:04;;;;;;;22.45;11.20;;;9.70;64.00;;;;;;5074096;28;20025;-58
2021/10/26 02:40:31;;;;;;;20.20;11.38;;;9.80;64.60;;;;;;5073235;28;20103;-60
2021/10/26 02:42:57;;;;;;;18.38;11.00;;;9.60;64.70;;;;;;5072367;28;20416;-61
2021/10/26 02:45:27;;;;;;;20.23;11.65;;;9.70;64.40;;;;;;5072944;28;20036;-56
2021/10/26 02:48:12;;;;;;;17.08;10.52;;;9.80;63.80;;;;;;5073109;28;20028;-58
2021/10/26 02:50:38;;;;;;;16.05;10.68;;;9.90;63.40;;;;;;5065996;28;20494;-57
2021/10/26 02:53:04;;;;;;;19.33;11.57;;;9.80;63.50;;;;;;5053509;28;20167;-57
2021/10/26 02:55:30;;;;;;;18.13;10.63;;;9.80;63.50;;;;;;5052941;28;20040;-58
2021/10/26 02:57:55;;;;;;;20.67;11.18;;;9.80;63.50;;;;;;5053538;28;20025;-58
2021/10/26 03:00:21;;;;;;;16.90;11.02;;;9.60;64.10;;;;;;5052714;28;20054;-58
2021/10/26 03:02:47;;;;;;;16.95;10.98;;;9.60;64.00;;;;;;5053152;28;20025;-58
2021/10/26 03:05:12;;;;;;;19.88;11.60;;;9.80;63.60;;;;;;5053010;28;20055;-58
2021/10/26 03:07:42;;;;;;;19.92;11.05;;;9.90;63.30;;;;;;5053006;28;20032;-60
2021/10/26 03:10:10;;;;;;;20.63;11.02;;;9.70;63.30;;;;;;5052511;28;20120;-59
2021/10/26 03:12:36;;;;;;;20.75;11.15;;;9.70;63.30;;;;;;5053244;28;20021;-61
2021/10/26 03:15:03;;;;;;;21.30;10.43;;;9.40;64.20;;;;;;5052514;28;20033;-58
2021/10/26 03:17:29;;;;;;;21.45;10.95;;;9.30;64.80;;;;;;5053149;28;20044;-60
2021/10/26 03:19:55;;;;;;;16.48;9.82;;;9.20;65.50;;;;;;5034654;28;20063;-59
2021/10/26 03:22:20;;;;;;;15.05;10.73;;;9.40;65.10;;;;;;5053059;28;20025;-58
2021/10/26 03:24:46;;;;;;;21.42;10.75;;;9.60;64.40;;;;;;5052683;28;20027;-56
2021/10/26 03:27:12;;;;;;;20.38;11.10;;;9.60;63.90;;;;;;5051909;28;20044;-57
2021/10/26 03:29:38;;;;;;;15.45;10.93;;;9.60;63.80;;;;;;5052527;28;20029;-59
2021/10/26 03:32:04;;;;;;;20.02;10.55;;;9.70;63.70;;;;;;5052227;28;20025;-59
2021/10/26 03:34:30;;;;;;;17.15;8.65;;;9.70;63.60;;;;;;5052720;28;20037;-58
2021/10/26 03:36:56;;;;;;;18.33;10.30;;;9.50;63.40;;;;;;5051844;28;20047;-58
2021/10/26 03:39:22;;;;;;;14.65;9.13;;;9.60;63.60;;;;;;5052364;28;20411;-59
2021/10/26 03:41:48;;;;;;;15.80;7.95;;;9.50;63.80;;;;;;5034698;28;20031;-57
2021/10/26 03:44:13;;;;;;;15.35;7.70;;;9.50;63.50;;;;;;5034171;28;20266;-60
2021/10/26 03:46:39;;;;;;;15.57;8.93;;;9.40;63.80;;;;;;5052403;28;20082;-61
2021/10/26 03:49:05;;;;;;;12.57;8.55;;;9.30;64.00;;;;;;5052093;28;20377;-56
2021/10/26 03:51:31;;;;;;;18.83;8.80;;;9.30;64.30;;;;;;5052007;28;20198;-57
2021/10/26 03:53:59;;;;;;;17.08;8.60;;;9.30;64.30;;;;;;5051822;28;20032;-58
2021/10/26 03:56:25;;;;;;;15.77;7.70;;;9.30;64.30;;;;;;5034457;28;20094;-58
2021/10/26 03:58:51;;;;;;;14.95;8.35;;;9.30;64.40;;;;;;5034495;28;20407;-56
2021/10/26 04:01:18;;;;;;;12.60;7.95;;;9.20;64.60;;;;;;5051831;28;20082;-57
2021/10/26 04:03:44;;;;;;;16.30;8.07;;;9.10;64.50;;;;;;5052368;28;20025;-58
2021/10/26 04:06:14;;;;;;;12.30;7.78;;;9.20;64.50;;;;;;5051758;28;20505;-58
2021/10/26 04:13:38;;;;;;;10.65;7.70;;;9.00;64.50;;;;;;5034404;28;20025;-56
2021/10/26 04:16:05;;;;;;;10.50;6.85;;;9.00;64.60;;;;;;5051489;28;20059;-58
2021/10/26 04:18:31;;;;;;;15.38;7.82;;;8.90;64.50;;;;;;5052188;28;20104;-53
2021/10/26 04:20:56;;;;;;;13.10;8.07;;;8.90;64.50;;;;;;5034005;28;20121;-58
2021/10/26 04:23:22;;;;;;;11.23;7.13;;;8.90;64.40;;;;;;5051905;28;20032;-58
2021/10/26 04:25:48;;;;;;;13.52;7.70;;;8.80;64.40;;;;;;5052304;28;20074;-54
2021/10/26 04:28:14;;;;;;;12.77;7.13;;;8.80;64.60;;;;;;5051676;28;20466;-58
2021/10/26 04:30:40;;;;;;;11.95;7.18;;;8.80;64.60;;;;;;5033785;28;20036;-59
2021/10/26 04:33:06;;;;;;;12.57;7.68;;;8.70;64.90;;;;;;5033245;28;20032;-58
2021/10/26 04:35:33;;;;;;;10.57;7.45;;;8.70;64.80;;;;;;5051969;28;20025;-59
2021/10/26 04:37:59;;;;;;;13.05;7.22;;;8.60;64.80;;;;;;5051323;28;20078;-59
2021/10/26 04:40:25;;;;;;;12.60;7.97;;;8.60;65.20;;;;;;5052139;28;20025;-58
2021/10/26 04:42:51;;;;;;;13.95;7.32;;;8.50;65.50;;;;;;5051975;28;20048;-58
2021/10/26 04:45:17;;;;;;;17.35;8.18;;;8.50;65.40;;;;;;5051092;28;20025;-58
2021/10/26 04:47:44;;;;;;;12.75;8.10;;;8.50;65.30;;;;;;5051902;28;20569;-58
2021/10/26 04:50:11;;;;;;;16.48;8.02;;;8.50;65.20;;;;;;5051043;28;20059;-59
2021/10/26 04:52:38;;;;;;;14.00;7.68;;;8.50;65.50;;;;;;5034082;28;20025;-57
2021/10/26 04:55:04;;;;;;;19.02;8.20;;;8.40;65.50;;;;;;5051233;28;20105;-59
2021/10/26 04:57:30;;;;;;;15.13;8.30;;;8.40;65.60;;;;;;5033923;28;20029;-59
2021/10/26 04:59:56;;;;;;;13.30;8.43;;;8.40;65.50;;;;;;5051405;28;20074;-58
2021/10/26 05:02:22;;;;;;;15.50;8.25;;;8.40;65.60;;;;;;5051812;28;20048;-58
2021/10/26 05:04:48;;;;;;;14.15;7.45;;;8.40;65.50;;;;;;5033930;28;20118;-59
2021/10/26 05:07:15;;;;;;;15.15;7.18;;;8.30;65.50;;;;;;5033042;28;20502;-58
2021/10/26 05:09:41;;;;;;;11.98;7.30;;;8.30;65.40;;;;;;5050820;28;20033;-57
2021/10/26 05:12:07;;;;;;;13.32;8.05;;;8.30;65.30;;;;;;5050426;28;20033;-57
2021/10/26 05:14:33;;;;;;;15.73;6.82;;;8.30;65.50;;;;;;5033763;28;20035;-58
2021/10/26 05:16:58;;;;;;;12.15;7.38;;;8.20;65.40;;;;;;5051081;28;20040;-60
2021/10/26 05:19:26;;;;;;;15.10;7.53;;;8.20;65.20;;;;;;5051534;28;20096;-58
2021/10/26 05:21:54;;;;;;;13.75;7.43;;;8.20;65.40;;;;;;5051611;28;20520;-58
2021/10/26 05:24:19;;;;;;;13.98;6.90;;;8.20;65.50;;;;;;5050942;28;20021;-57
2021/10/26 05:26:45;;;;;;;13.90;7.90;;;8.10;65.50;;;;;;5033527;28;20502;-57
2021/10/26 05:29:11;;;;;;;12.05;7.10;;;8.00;65.70;;;;;;5050990;28;20090;-57
2021/10/26 05:31:39;;;;;;;14.77;7.93;;;8.10;66.00;;;;;;5033701;28;20021;-58
2021/10/26 05:34:09;;;;;;;15.75;7.97;;;8.00;66.30;;;;;;5050679;28;20096;-57
2021/10/26 05:36:35;;;;;;;13.15;7.28;;;7.90;66.30;;;;;;5051414;28;20028;-56
2021/10/26 05:39:05;;;;;;;12.30;7.57;;;8.00;66.20;;;;;;5033155;28;20033;-56
2021/10/26 05:41:31;;;;;;;15.63;8.27;;;8.00;66.20;;;;;;5034208;28;20118;-57
2021/10/26 05:43:56;;;;;;;14.30;7.60;;;8.00;66.20;;;;;;5051350;28;20036;-54
2021/10/26 05:46:22;;;;;;;18.05;8.50;;;8.00;66.00;;;;;;5050478;28;20386;-60
2021/10/26 05:48:48;;;;;;;17.50;8.07;;;8.00;66.00;;;;;;5051363;28;20104;-61
2021/10/26 05:51:14;;;;;;;14.00;7.20;;;7.90;66.20;;;;;;5047413;28;20052;-64
2021/10/26 05:53:39;;;;;;;14.45;7.95;;;8.00;65.90;;;;;;5032859;28;20419;-63
2021/10/26 05:56:05;;;;;;;15.45;8.43;;;8.00;65.50;;;;;;5050440;28;20029;-63
2021/10/26 05:58:31;;;;;;;17.38;8.23;;;8.00;65.40;;;;;;5051147;28;20026;-63
2021/10/26 06:00:56;;;;;;;16.70;8.50;;;8.00;65.50;;;;;;5050978;28;20364;-62
2021/10/26 06:03:22;;;;;;;14.63;7.53;;;8.00;65.50;;;;;;5050476;28;20025;-62
2021/10/26 06:05:48;;;;;;;12.02;7.88;;;8.10;65.40;;;;;;5050815;28;20108;-63
2021/10/26 06:08:14;;;;;;;12.20;7.43;;;8.10;65.30;;;;;;5032439;28;20029;-63
2021/10/26 06:10:46;;;;;;;11.68;8.00;;;8.20;65.30;;;;;;5032780;28;20466;-64
2021/10/26 06:13:16;;;;;;;17.80;8.88;;;8.20;65.30;;;;;;5050666;28;20442;-63
2021/10/26 06:15:41;;;;;;;14.75;8.05;;;8.30;65.20;;;;;;5032906;28;20064;-63
2021/10/26 06:18:07;;;;;;;12.32;7.85;;;8.30;65.10;;;;;;5049800;28;20060;-63
2021/10/26 06:20:33;;;;;;;12.00;8.02;;;8.40;65.00;;;;;;5051131;28;20035;-64
2021/10/26 06:22:59;;;;;;;16.70;8.65;;;8.40;65.00;;;;;;5054293;28;20022;-62
2021/10/26 06:25:26;;;;;;;15.13;8.80;;;8.40;65.00;;;;;;5035967;28;20067;-62
2021/10/26 06:27:52;;;;;;;15.30;8.38;;;8.50;64.80;;;;;;5054025;28;20382;-63
2021/10/26 06:30:18;;;;;;;17.13;9.50;;;8.50;64.70;;;;;;5036140;28;20021;-63
2021/10/26 06:32:44;;;;;;;12.75;9.00;;;8.60;64.60;;;;;;5054202;28;20535;-62
2021/10/26 06:35:11;;;;;;;15.90;9.55;;;8.60;64.60;;;;;;5036096;28;20453;-63
2021/10/26 06:37:41;;;;;;;15.07;8.95;;;8.70;64.50;;;;;;5054344;28;20105;-63
2021/10/26 06:40:07;;;;;;;14.18;8.05;;;8.70;64.40;;;;;;5053666;28;20029;-63
2021/10/26 06:42:34;;;;;;;14.55;8.60;;;8.80;64.30;;;;;;5036454;28;20033;-63
2021/10/26 06:45:03;;;;;;;16.02;9.55;;;8.80;64.10;;;;;;5036185;28;20359;-64
2021/10/26 06:47:30;;;;;;;20.08;9.35;;;8.90;63.80;;;;;;5053342;28;20087;-62
2021/10/26 06:49:56;;;;;;;14.00;8.85;;;9.00;63.70;;;;;;5053213;28;20021;-64
2021/10/26 06:52:22;;;;;;;15.93;8.75;;;9.10;63.40;;;;;;5052564;28;20025;-64
2021/10/26 06:54:47;;;;;;;13.98;8.57;;;9.10;63.10;;;;;;5053171;28;20066;-63
2021/10/26 06:57:15;;;;;;;16.65;9.35;;;9.20;62.90;;;;;;5053547;28;20370;-64
2021/10/26 06:59:40;;;;;;;13.57;8.65;;;9.20;62.80;;;;;;5036000;28;20029;-65
2021/10/26 07:02:07;;;;;;;17.67;10.02;;;9.30;62.60;;;;;;5053449;28;20485;-63
2021/10/26 07:04:35;;;;;;;14.40;9.65;;;9.30;62.40;;;;;;5053951;28;20036;-64
2021/10/26 07:07:01;;;;;;;20.90;13.65;;;9.40;62.30;;;;;;5054117;28;20087;-63
2021/10/26 07:09:27;;;;;;;16.45;13.18;;;10.00;63.10;;;;;;5053461;28;20086;-65
2021/10/26 07:11:53;;;;;;;14.82;12.00;;;12.60;59.90;;;;;;5053650;28;20421;-64
2021/10/26 07:14:19;;;;;;;14.45;9.68;;;15.10;54.40;;;;;;5035157;28;20028;-63
2021/10/26 07:16:45;;;;;;;13.95;9.13;;;16.90;49.30;;;;;;5053502;28;20379;-62
2021/10/26 07:19:11;;;;;;;15.88;11.15;;;17.00;46.30;;;;;;5035291;28;20518;-65
2021/10/26 07:21:37;;;;;;;15.75;10.73;;;17.50;46.20;;;;;;5035793;28;20334;-63
2021/10/26 07:24:04;;;;;;;13.18;10.35;;;19.10;43.60;;;;;;5053586;28;20021;-64
2021/10/26 07:26:30;;;;;;;12.70;9.60;;;20.20;40.60;;;;;;5053402;28;20033;-63
2021/10/26 07:28:57;;;;;;;16.98;10.77;;;20.90;38.80;;;;;;5053386;28;20108;-64
2021/10/26 07:31:24;;;;;;;18.55;10.45;;;21.30;37.80;;;;;;5052962;28;20049;-64
2021/10/26 07:33:51;;;;;;;13.20;10.38;;;22.00;36.80;;;;;;5052061;28;20056;-64
2021/10/26 07:36:19;;;;;;;14.90;11.05;;;22.70;35.50;;;;;;5052794;28;20039;-64
2021/10/26 07:38:44;;;;;;;16.65;11.30;;;23.10;34.40;;;;;;5053266;28;20032;-65
2021/10/26 07:41:11;;;;;;;15.63;10.82;;;23.40;33.70;;;;;;5034862;28;20565;-63
2021/10/26 07:43:37;;;;;;;13.90;10.60;;;23.60;33.20;;;;;;5053090;28;20024;-63
2021/10/26 07:46:05;;;;;;;15.98;10.50;;;23.10;32.80;;;;;;5052856;28;20029;-63
2021/10/26 07:48:31;;;;;;;15.20;10.93;;;22.20;33.30;;;;;;5034815;28;20059;-64
2021/10/26 07:50:59;;;;;;;15.73;10.02;;;20.80;34.70;;;;;;5052672;28;20053;-63
2021/10/26 07:53:29;;;;;;;14.23;10.30;;;19.50;36.70;;;;;;5052829;28;20115;-64
2021/10/26 07:56:00;;;;;;;15.10;10.27;;;18.50;39.00;;;;;;5035088;28;20029;-64
2021/10/26 07:58:26;;;;;;;17.80;9.98;;;17.70;39.80;;;;;;5052417;28;20029;-64
2021/10/26 08:00:52;;;;;;;17.20;11.73;;;17.10;40.90;;;;;;5052623;28;20108;-64
2021/10/26 08:03:19;;;;;;;15.15;10.80;;;16.50;41.70;;;;;;5052389;28;20071;-64
2021/10/26 08:05:45;;;;;;;20.50;10.88;;;16.20;42.60;;;;;;5052273;28;20040;-64
2021/10/26 08:08:11;;;;;;;16.33;11.13;;;15.90;43.30;;;;;;5051446;28;20052;-64
2021/10/26 08:10:37;;;;;;;13.57;10.15;;;15.70;43.80;;;;;;5051232;28;20060;-64
2021/10/26 08:13:03;;;;;;;16.95;10.32;;;15.40;44.20;;;;;;5034671;28;20029;-64
2021/10/26 08:15:29;;;;;;;15.63;11.18;;;15.10;44.80;;;;;;5051029;28;20485;-64
2021/10/26 08:17:55;;;;;;;20.55;10.32;;;14.90;45.30;;;;;;5052798;28;20373;-64
2021/10/26 08:20:20;;;;;;;14.10;10.70;;;14.70;45.90;;;;;;5051439;28;20482;-64
2021/10/26 08:22:46;;;;;;;15.35;10.88;;;14.60;46.30;;;;;;5051406;28;20493;-65
2021/10/26 08:25:22;;;;;;;16.70;11.27;;;14.40;46.60;;;;;;5050969;28;20470;-64
2021/10/26 08:28:01;;;;;;;18.85;11.23;;;14.30;47.10;;;;;;5052006;28;20028;-63
2021/10/26 08:33:14;;;;;;;15.55;11.18;;;14.30;47.70;;;;;;5051633;28;20025;-63
2021/10/26 08:35:40;;;;;;;15.05;11.82;;;14.20;47.80;;;;;;5034649;28;20496;-63
2021/10/26 08:38:08;;;;;;;19.77;12.25;;;14.20;48.00;;;;;;5052062;28;20025;-63
2021/10/26 08:40:37;;;;;;;17.73;10.65;;;14.20;48.30;;;;;;5051649;28;20028;-63
2021/10/26 08:43:06;;;;;;;16.00;11.85;;;14.10;48.40;;;;;;5034482;28;20040;-63
2021/10/26 08:45:35;;;;;;;20.10;11.68;;;14.10;48.60;;;;;;5050761;28;20028;-64
2021/10/26 08:48:06;;;;;;;21.40;11.38;;;14.20;48.60;;;;;;5052123;28;20087;-63
2021/10/26 08:50:34;;;;;;;19.15;12.55;;;14.20;48.50;;;;;;5051276;28;20055;-63
2021/10/26 08:53:01;;;;;;;22.98;12.02;;;14.20;48.80;;;;;;5052096;28;20040;-63
2021/10/26 08:55:27;;;;;;;22.42;13.90;;;14.30;48.80;;;;;;5051215;28;20025;-64
2021/10/26 08:57:55;;;;;;;21.25;13.32;;;14.40;48.80;;;;;;5051696;28;20025;-63
2021/10/26 09:00:22;;;;;;;19.88;12.27;;;14.50;48.80;;;;;;5033646;28;20425;-63
2021/10/26 09:02:51;;;;;;;20.13;13.75;;;14.50;48.80;;;;;;5052115;28;20370;-63
2021/10/26 09:05:21;;;;;;;23.25;15.80;;;14.50;49.10;;;;;;5051239;28;20037;-65
2021/10/26 09:08:05;;;;;;;22.23;14.73;;;14.50;49.20;;;;;;5051965;28;20052;-63
2021/10/26 09:10:32;;;;;;;19.08;14.18;;;14.30;49.60;;;;;;5051129;28;20017;-64
2021/10/26 09:19:08;;;;;;;19.80;14.68;;;14.20;50.30;;;;;;5051926;28;20500;-63
2021/10/26 09:21:34;;;;;;;18.95;14.48;;;14.20;50.70;;;;;;5033111;28;20245;-64
2021/10/26 09:24:04;;;;;;;22.95;14.52;;;14.30;50.60;;;;;;5051218;28;20437;-63
2021/10/26 09:27:00;;;;;;;25.73;15.25;;;14.40;50.60;;;;;;5050628;28;20060;-64
2021/10/26 09:29:35;;;;;;;21.50;15.07;;;14.50;50.20;;;;;;5048521;28;20123;-63
2021/10/26 09:32:09;;;;;;;21.17;14.50;;;14.60;50.20;;;;;;5051423;28;20033;-64
2021/10/26 09:35:09;;;;;;;22.25;15.00;;;14.60;50.30;;;;;;5032986;28;20419;-64
2021/10/26 09:37:45;;;;;;;21.08;14.38;;;14.80;50.10;;;;;;5050700;28;20289;-63
2021/10/26 09:40:11;;;;;;;19.92;14.75;;;14.80;50.00;;;;;;5051144;28;20040;-63
2021/10/26 09:42:53;;;;;;;24.67;14.70;;;14.80;50.00;;;;;;5050372;28;20407;-64
2021/10/26 09:45:25;;;;;;;24.02;15.05;;;14.70;50.10;;;;;;5050583;28;20107;-64
2021/10/26 09:47:57;;;;;;;23.40;15.07;;;14.60;50.40;;;;;;5033371;28;20024;-64
2021/10/26 09:50:29;;;;;;;24.65;16.35;;;14.50;50.80;;;;;;5050236;28;20140;-64
2021/10/26 09:53:06;;;;;;;22.67;15.30;;;14.60;51.10;;;;;;5050948;28;20033;-64
2021/10/26 09:55:47;;;;;;;20.15;15.63;;;14.50;51.10;;;;;;5033895;28;20553;-64
2021/10/26 09:58:18;;;;;;;22.17;15.70;;;14.60;51.30;;;;;;5054896;28;20035;-63
2021/10/26 10:00:46;;;;;;;26.70;16.08;;;14.80;51.10;;;;;;5054698;28;20055;-64
2021/10/26 10:03:16;;;;;;;21.33;15.63;;;14.90;50.60;;;;;;5036876;28;20466;-63
2021/10/26 10:05:43;;;;;;;20.20;15.30;;;15.00;50.70;;;;;;5036656;28;20131;-64
2021/10/26 10:08:29;;;;;;;24.67;16.02;;;15.20;51.00;;;;;;5036909;28;20025;-64
2021/10/26 10:11:06;;;;;;;23.65;16.50;;;15.30;50.10;;;;;;5054755;28;20033;-64
2021/10/26 10:13:33;;;;;;;21.50;15.93;;;15.40;50.00;;;;;;5036064;28;20430;-64
2021/10/26 10:16:03;;;;;;;21.90;16.13;;;15.50;49.80;;;;;;5053129;28;20063;-64
2021/10/26 10:18:30;;;;;;;18.90;15.23;;;15.40;49.70;;;;;;5053119;28;20159;-65
2021/10/26 10:20:56;;;;;;;20.88;13.00;;;15.30;50.20;;;;;;5035369;28;20048;-66
2021/10/26 10:23:24;;;;;;;24.23;16.83;;;15.40;50.80;;;;;;5053288;28;20039;-65
2021/10/26 10:25:52;;;;;;;21.23;14.52;;;15.50;50.60;;;;;;5035764;28;20110;-65
2021/10/26 10:28:21;;;;;;;21.80;14.20;;;15.70;50.40;;;;;;5053599;28;20367;-68
2021/10/26 10:30:48;;;;;;;14.20;9.75;;;15.90;50.20;;;;;;5035615;28;20033;-64
2021/10/26 10:33:20;;;;;;;13.57;9.65;;;16.10;50.10;;;;;;5053986;28;20127;-64
2021/10/26 10:35:48;;;;;;;12.98;9.25;;;16.10;50.10;;;;;;5036062;28;20083;-63
2021/10/26 10:38:18;;;;;;;15.48;9.80;;;16.20;50.00;;;;;;5054086;28;20025;-64
2021/10/26 10:40:44;;;;;;;14.02;10.10;;;16.30;50.00;;;;;;5035480;28;20074;-63
2021/10/26 10:43:10;;;;;;;13.23;9.63;;;16.40;49.70;;;;;;5054223;28;20051;-66
2021/10/26 10:45:44;;;;;;;13.18;9.70;;;16.50;49.30;;;;;;5053347;28;20551;-66
2021/10/26 10:48:26;;;;;;;13.85;9.63;;;16.60;49.20;;;;;;5036474;28;20131;-64
2021/10/26 10:51:07;;;;;;;12.82;9.25;;;16.50;49.50;;;;;;5051125;28;20135;-64
2021/10/26 10:53:34;;;;;;;12.68;8.68;;;16.60;49.10;;;;;;5073870;28;20025;-65
2021/10/26 10:56:20;;;;;;;12.27;9.25;;;16.70;49.20;;;;;;5074223;28;20044;-65
2021/10/26 10:58:49;;;;;;;21.40;13.77;;;16.70;48.90;;;;;;5072241;28;20048;-65
2021/10/26 11:01:36;;;;;;;13.35;9.43;;;16.80;48.80;;;;;;5072271;28;20028;-64
2021/10/26 11:04:17;;;;;;;10.73;9.07;;;16.80;48.70;;;;;;5074063;28;20027;-63
2021/10/26 11:06:43;;;;;;;12.23;8.68;;;16.80;48.70;;;;;;5071310;28;20044;-64
2021/10/26 11:09:36;;;;;;;11.23;8.70;;;16.80;48.60;;;;;;5073246;28;20442;-63
2021/10/26 11:12:19;;;;;;;12.20;9.43;;;16.90;48.60;;;;;;5070215;28;20041;-64
2021/10/26 11:14:55;;;;;;;18.73;9.10;;;16.80;48.70;;;;;;5072990;28;20035;-64
2021/10/26 11:17:49;;;;;;;12.80;9.65;;;16.80;48.90;;;;;;5073459;28;20032;-65
2021/10/26 11:20:28;;;;;;;13.77;10.02;;;16.90;48.80;;;;;;5071081;28;20029;-64
2021/10/26 11:23:04;;;;;;;17.10;10.88;;;16.80;48.90;;;;;;5072965;28;20038;-65
2021/10/26 11:25:44;;;;;;;13.57;9.27;;;16.90;49.00;;;;;;5072634;28;20017;-64
2021/10/26 11:28:13;;;;;;;14.95;9.95;;;17.00;48.70;;;;;;5072559;28;20081;-64
2021/10/26 11:30:44;;;;;;;20.00;9.88;;;17.10;48.60;;;;;;5072302;28;20032;-63
2021/10/26 11:33:13;;;;;;;20.98;14.60;;;17.10;48.50;;;;;;5073131;28;20024;-64
2021/10/26 11:35:52;;;;;;;18.00;11.45;;;17.10;48.50;;;;;;5072453;28;20101;-64
2021/10/26 11:38:50;;;;;;;13.30;9.68;;;17.20;48.70;;;;;;5073037;28;20033;-63
2021/10/26 11:41:27;;;;;;;28.48;19.67;;;17.20;48.60;;;;;;5068172;28;20518;-64
2021/10/26 11:44:07;;;;;;;14.10;9.98;;;17.10;48.70;;;;;;5071160;28;20021;-65
2021/10/26 11:46:36;;;;;;;19.75;13.88;;;17.10;48.60;;;;;;5071919;28;20055;-64
2021/10/26 11:49:19;;;;;;;24.65;14.80;;;17.10;48.60;;;;;;5072372;28;20073;-65
2021/10/26 11:51:58;;;;;;;21.42;14.65;;;17.00;48.50;;;;;;5071065;28;20052;-66
2021/10/26 11:54:30;;;;;;;14.48;9.30;;;17.00;48.90;;;;;;5070920;28;20054;-66
2021/10/26 11:57:23;;;;;;;13.15;8.82;;;17.00;48.60;;;;;;5071063;28;20032;-64
2021/10/26 11:59:48;;;;;;;16.40;9.35;;;17.00;48.30;;;;;;5065604;28;20541;-64
2021/10/26 12:02:16;;;;;;;17.13;8.75;;;16.90;48.20;;;;;;5070315;28;20115;-64
2021/10/26 12:05:16;;;;;;;12.10;9.18;;;16.90;48.40;;;;;;5070042;28;20499;-64
2021/10/26 12:07:49;;;;;;;15.10;8.50;;;16.90;48.40;;;;;;5071277;28;20044;-65
2021/10/26 12:10:15;;;;;;;14.73;9.60;;;16.80;48.40;;;;;;5072120;28;20036;-65
2021/10/26 12:12:41;;;;;;;16.58;11.07;;;16.90;48.70;;;;;;5070029;28;20069;-65
2021/10/26 12:15:09;;;;;;;14.35;11.07;;;17.00;48.50;;;;;;5070135;28;20333;-65
2021/10/26 12:17:36;;;;;;;12.55;8.88;;;17.00;48.60;;;;;;5071036;28;20143;-65
2021/10/26 12:20:06;;;;;;;11.25;8.20;;;17.00;48.50;;;;;;5070647;28;20032;-65
2021/10/26 12:22:40;;;;;;;12.88;8.57;;;17.00;48.60;;;;;;5070081;28;20078;-68
2021/10/26 12:25:12;;;;;;;16.08;10.40;;;17.00;48.50;;;;;;5071497;28;20048;-66
2021/10/26 12:27:41;;;;;;;18.33;11.07;;;16.90;48.70;;;;;;5069817;28;20134;-65
2021/10/26 12:30:17;;;;;;;21.55;14.32;;;17.00;48.80;;;;;;5071673;28;20024;-65
2021/10/26 12:32:51;;;;;;;19.25;13.63;;;16.80;49.00;;;;;;5070944;28;20025;-65
2021/10/26 12:35:17;;;;;;;25.98;16.52;;;16.70;49.70;;;;;;5071345;28;20512;-64
2021/10/26 12:37:43;;;;;;;18.95;12.90;;;17.00;49.60;;;;;;5070722;28;20170;-65
2021/10/26 12:40:19;;;;;;;20.98;15.90;;;17.10;48.90;;;;;;5071749;28;20040;-65
2021/10/26 12:42:47;;;;;;;19.75;14.60;;;17.10;48.80;;;;;;5070982;28;20030;-65
2021/10/26 12:45:17;;;;;;;23.27;14.13;;;17.00;48.80;;;;;;5071551;28;20025;-65
2021/10/26 12:47:56;;;;;;;22.05;13.93;;;16.80;49.00;;;;;;5069086;28;20040;-65
2021/10/26 12:50:51;;;;;;;18.15;13.55;;;16.70;49.30;;;;;;5066042;28;20053;-63
2021/10/26 12:53:36;;;;;;;24.83;16.40;;;16.70;49.60;;;;;;5051805;28;20017;-66
2021/10/26 12:56:18;;;;;;;21.88;13.82;;;16.90;49.50;;;;;;5033434;28;20066;-64
2021/10/26 12:58:51;;;;;;;19.17;14.00;;;17.00;49.30;;;;;;5050641;28;20049;-65